createdAt,value
2022-11-16T00:00:12.855Z,53.49
2022-11-16T00:02:39.201Z,53.63
2022-11-16T00:07:49.375Z,53.61
2022-11-16T00:10:15.698Z,53.79
2022-11-16T00:12:42.037Z,54.25
2022-11-16T00:15:09.228Z,53.70
2022-11-16T00:17:35.566Z,53.87
2022-11-16T00:22:45.690Z,54.31
2022-11-16T00:25:12.878Z,54.00
2022-11-16T00:27:39.218Z,54.06
2022-11-16T00:30:05.623Z,54.03
2022-11-16T00:32:31.981Z,54.46
2022-11-16T00:37:41.992Z,54.22
2022-11-16T00:40:08.336Z,54.54
2022-11-16T00:42:34.680Z,54.60
2022-11-16T00:45:01.871Z,54.13
2022-11-16T00:47:28.237Z,55.05
2022-11-16T00:49:54.616Z,54.49
2022-11-16T00:52:21.817Z,54.49
2022-11-16T00:54:48.169Z,54.38
2022-11-16T00:57:15.371Z,54.39
2022-11-16T00:59:41.706Z,54.23
2022-11-16T01:02:08.099Z,54.47
2022-11-16T01:04:34.427Z,54.02
2022-11-16T01:07:00.834Z,54.36
2022-11-16T01:09:27.304Z,55.09
2022-11-16T01:11:53.648Z,54.22
2022-11-16T01:14:20.834Z,54.27
2022-11-16T01:16:47.187Z,54.08
2022-11-16T01:19:13.523Z,54.25
2022-11-16T01:21:39.872Z,54.36
2022-11-16T01:24:06.238Z,54.18
2022-11-16T01:26:32.597Z,54.38
2022-11-16T01:28:58.933Z,54.27
2022-11-16T01:31:25.320Z,54.18
2022-11-16T01:33:51.635Z,53.94
2022-11-16T01:36:18.835Z,54.19
2022-11-16T01:38:45.143Z,53.88
2022-11-16T01:41:11.498Z,53.92
2022-11-16T01:43:37.824Z,53.87
2022-11-16T01:46:04.162Z,53.86
2022-11-16T01:48:30.625Z,53.57
2022-11-16T01:50:57.116Z,53.55
2022-11-16T01:53:23.454Z,54.06
2022-11-16T01:55:49.795Z,53.53
2022-11-16T01:58:16.175Z,53.36
2022-11-16T02:00:42.555Z,53.62
2022-11-16T02:03:09.834Z,53.36
2022-11-16T02:05:36.199Z,53.66
2022-11-16T02:10:46.336Z,53.48
2022-11-16T02:13:12.680Z,53.68
2022-11-16T02:15:39.006Z,53.76
2022-11-16T02:18:05.383Z,54.37
2022-11-16T02:20:31.704Z,54.28
2022-11-16T02:25:42.002Z,54.34
2022-11-16T02:28:08.330Z,54.72
2022-11-16T02:30:34.668Z,54.35
2022-11-16T02:33:01.004Z,54.52
2022-11-16T02:35:27.341Z,54.75
2022-11-16T02:40:47.584Z,54.77
2022-11-16T02:43:13.941Z,54.67
2022-11-16T02:45:40.290Z,54.79
2022-11-16T02:48:06.652Z,54.75
2022-11-16T02:50:32.975Z,54.87
2022-11-16T02:55:53.084Z,54.79
2022-11-16T02:58:19.512Z,55.03
2022-11-16T03:00:45.872Z,54.80
2022-11-16T03:03:13.091Z,54.73
2022-11-16T03:05:39.432Z,54.53
2022-11-16T03:10:49.323Z,55.00
2022-11-16T03:13:15.656Z,54.80
2022-11-16T03:15:41.983Z,54.68
2022-11-16T03:18:08.353Z,54.64
2022-11-16T03:20:34.693Z,55.04
2022-11-16T03:25:54.683Z,54.64
2022-11-16T03:28:21.019Z,55.09
2022-11-16T03:30:47.345Z,54.79
2022-11-16T03:33:13.673Z,54.67
2022-11-16T03:35:40.000Z,55.18
2022-11-16T03:41:00.060Z,54.66
2022-11-16T03:43:26.453Z,54.35
2022-11-16T03:45:52.782Z,54.60
2022-11-16T03:48:19.092Z,54.71
2022-11-16T03:50:45.440Z,54.67
2022-11-16T03:55:55.536Z,54.71
2022-11-16T03:58:21.874Z,54.46
2022-11-16T04:00:48.343Z,54.42
2022-11-16T04:03:14.700Z,54.68
2022-11-16T04:05:41.199Z,54.56
2022-11-16T04:11:01.301Z,54.52
2022-11-16T04:13:27.693Z,54.99
2022-11-16T04:15:54.037Z,54.56
2022-11-16T04:18:21.266Z,54.20
2022-11-16T04:20:47.595Z,54.42
2022-11-16T04:25:57.922Z,54.24
2022-11-16T04:28:24.241Z,54.47
2022-11-16T04:30:50.557Z,54.45
2022-11-16T04:33:17.780Z,54.55
2022-11-16T04:35:44.121Z,53.93
2022-11-16T04:41:04.611Z,54.12
2022-11-16T04:43:30.939Z,54.10
2022-11-16T04:45:57.287Z,54.61
2022-11-16T04:48:23.605Z,54.17
2022-11-16T04:50:49.963Z,53.99
2022-11-16T04:53:16.271Z,54.22
2022-11-16T04:55:42.604Z,54.18
2022-11-16T04:58:09.782Z,54.35
2022-11-16T05:00:36.131Z,54.08
2022-11-16T05:03:02.475Z,54.23
2022-11-16T05:05:28.912Z,54.53
2022-11-16T05:07:55.259Z,54.40
2022-11-16T05:10:21.594Z,54.33
2022-11-16T05:12:47.927Z,54.36
2022-11-16T05:15:14.268Z,54.39
2022-11-16T05:17:40.647Z,54.12
2022-11-16T05:20:06.982Z,54.12
2022-11-16T05:22:34.196Z,53.85
2022-11-16T05:25:01.415Z,53.22
2022-11-16T05:27:27.746Z,53.58
2022-11-16T05:29:54.125Z,53.08
2022-11-16T05:32:21.418Z,53.42
2022-11-16T05:34:47.771Z,53.21
2022-11-16T05:37:14.099Z,53.01
2022-11-16T05:39:41.319Z,52.71
2022-11-16T05:42:07.704Z,52.91
2022-11-16T05:44:34.123Z,52.50
2022-11-16T05:47:03.283Z,52.23
2022-11-16T05:49:29.692Z,52.06
2022-11-16T05:51:57.979Z,52.21
2022-11-16T05:54:26.251Z,52.43
2022-11-16T05:56:55.437Z,52.33
2022-11-16T05:59:25.897Z,52.57
2022-11-16T06:01:52.397Z,52.34
2022-11-16T06:04:24.096Z,52.53
2022-11-16T06:06:52.564Z,52.34
2022-11-16T06:09:19.018Z,52.17
2022-11-16T06:14:34.812Z,52.08
2022-11-16T06:17:01.501Z,52.08
2022-11-16T06:19:32.365Z,51.61
2022-11-16T06:22:01.242Z,51.74
2022-11-16T06:24:29.923Z,51.75
2022-11-16T06:29:41.444Z,51.17
2022-11-16T06:32:07.915Z,51.59
2022-11-16T06:34:36.244Z,51.39
2022-11-16T06:37:02.580Z,51.32
2022-11-16T06:39:29.786Z,51.48
2022-11-16T06:44:50.840Z,51.63
2022-11-16T06:47:18.184Z,51.83
2022-11-16T06:49:44.634Z,51.85
2022-11-16T06:52:11.839Z,51.81
2022-11-16T06:54:41.028Z,52.15
2022-11-16T06:59:56.222Z,52.03
2022-11-16T07:02:22.633Z,52.28
2022-11-16T07:04:50.894Z,52.23
2022-11-16T07:07:17.345Z,52.23
2022-11-16T07:09:44.626Z,52.15
2022-11-16T07:14:55.967Z,53.03
2022-11-16T07:17:22.387Z,53.42
2022-11-16T07:19:48.753Z,53.26
2022-11-16T07:22:15.946Z,53.31
2022-11-16T07:24:43.209Z,53.49
2022-11-16T07:29:53.286Z,52.87
2022-11-16T07:32:22.415Z,53.55
2022-11-16T07:34:50.687Z,53.49
2022-11-16T07:37:18.905Z,53.58
2022-11-16T07:39:47.172Z,53.33
2022-11-16T07:45:11.381Z,52.06
2022-11-16T07:47:39.661Z,51.96
2022-11-16T07:50:06.899Z,52.08
2022-11-16T07:52:36.090Z,52.66
2022-11-16T07:55:02.476Z,52.48
2022-11-16T08:00:27.494Z,52.89
2022-11-16T08:02:55.754Z,52.82
2022-11-16T08:05:24.890Z,53.14
2022-11-16T08:07:51.376Z,52.93
2022-11-16T08:10:20.691Z,53.40
2022-11-16T08:15:33.257Z,53.15
2022-11-16T08:17:59.668Z,53.03
2022-11-16T08:20:28.929Z,53.18
2022-11-16T08:22:57.200Z,52.87
2022-11-16T08:25:26.342Z,53.45
2022-11-16T08:30:53.573Z,53.13
2022-11-16T08:33:21.142Z,53.65
2022-11-16T08:35:48.386Z,53.35
2022-11-16T08:38:14.820Z,53.47
2022-11-16T08:40:41.647Z,53.50
2022-11-16T08:46:02.186Z,53.12
2022-11-16T08:48:29.416Z,53.30
2022-11-16T08:51:16.492Z,53.59
2022-11-16T08:53:42.940Z,53.50
2022-11-16T08:56:10.151Z,53.58
2022-11-16T08:58:39.345Z,53.44
2022-11-16T09:01:08.484Z,53.77
2022-11-16T09:03:37.688Z,54.11
2022-11-16T09:08:48.621Z,53.40
2022-11-16T09:11:14.999Z,53.85
2022-11-16T09:13:41.343Z,53.91
2022-11-16T09:16:07.782Z,53.79
2022-11-16T09:18:34.283Z,54.02
2022-11-16T09:21:01.071Z,54.02
2022-11-16T09:23:27.403Z,53.71
2022-11-16T09:25:53.738Z,53.92
2022-11-16T09:28:20.953Z,53.78
2022-11-16T09:30:47.279Z,53.27
2022-11-16T09:33:13.678Z,52.87
2022-11-16T09:35:40.028Z,52.18
2022-11-16T09:38:06.375Z,52.49
2022-11-16T09:40:32.746Z,52.22
2022-11-16T09:42:59.072Z,52.05
2022-11-16T09:45:25.429Z,52.00
2022-11-16T09:47:51.832Z,51.19
2022-11-16T09:50:18.162Z,50.89
2022-11-16T09:52:44.474Z,50.03
2022-11-16T09:55:15.843Z,50.02
2022-11-16T09:57:42.367Z,49.86
2022-11-16T10:00:08.731Z,49.54
2022-11-16T10:02:35.045Z,49.63
2022-11-16T10:05:01.393Z,49.68
2022-11-16T10:07:27.767Z,49.40
2022-11-16T10:09:54.242Z,48.76
2022-11-16T10:12:20.560Z,48.92
2022-11-16T10:14:46.867Z,48.69
2022-11-16T10:17:13.185Z,48.70
2022-11-16T10:19:39.531Z,48.40
2022-11-16T10:22:05.893Z,49.13
2022-11-16T10:24:32.332Z,49.12
2022-11-16T10:26:58.685Z,48.39
2022-11-16T10:29:25.023Z,48.18
2022-11-16T10:31:51.360Z,48.35
2022-11-16T10:34:18.568Z,48.15
2022-11-16T10:36:44.909Z,48.17
2022-11-16T10:39:12.107Z,47.75
2022-11-16T10:41:38.460Z,47.99
2022-11-16T10:44:04.816Z,48.29
2022-11-16T10:46:31.170Z,47.83
2022-11-16T10:48:57.516Z,48.17
2022-11-16T10:51:23.854Z,48.00
2022-11-16T10:53:50.176Z,47.95
2022-11-16T10:58:42.787Z,47.77
2022-11-16T11:01:09.279Z,47.38
2022-11-16T11:03:35.794Z,47.48
2022-11-16T11:06:02.330Z,47.33
2022-11-16T11:08:28.691Z,46.99
2022-11-16T11:10:55.044Z,47.91
2022-11-16T11:13:21.393Z,47.49
2022-11-16T11:15:47.875Z,47.32
2022-11-16T11:18:14.231Z,47.59
2022-11-16T11:20:44.658Z,47.18
2022-11-16T11:23:12.380Z,47.30
2022-11-16T11:25:38.703Z,46.68
2022-11-16T11:28:05.134Z,47.25
2022-11-16T11:30:31.440Z,47.04
2022-11-16T11:32:57.790Z,46.81
2022-11-16T11:35:24.101Z,47.06
2022-11-16T11:37:50.395Z,46.80
2022-11-16T11:40:16.739Z,47.06
2022-11-16T11:42:43.039Z,47.17
2022-11-16T11:45:09.373Z,46.35
2022-11-16T11:47:56.798Z,46.71
2022-11-16T11:50:21.972Z,47.03
2022-11-16T11:52:48.284Z,46.64
2022-11-16T11:55:14.671Z,46.90
2022-11-16T11:57:41.030Z,46.79
2022-11-16T12:00:07.383Z,47.30
2022-11-16T12:02:33.735Z,47.04
2022-11-16T12:05:00.088Z,47.41
2022-11-16T12:07:26.518Z,47.57
2022-11-16T12:09:52.871Z,47.83
2022-11-16T12:12:21.979Z,48.03
2022-11-16T12:14:48.309Z,47.79
2022-11-16T12:17:14.664Z,47.99
2022-11-16T12:19:41.010Z,48.01
2022-11-16T12:22:07.406Z,48.13
2022-11-16T12:24:33.697Z,47.72
2022-11-16T12:27:00.027Z,48.50
2022-11-16T12:29:26.333Z,48.12
2022-11-16T12:31:52.638Z,48.31
2022-11-16T12:34:18.966Z,48.31
2022-11-16T12:36:45.274Z,48.69
2022-11-16T12:39:11.681Z,48.46
2022-11-16T12:41:37.960Z,48.13
2022-11-16T12:44:04.338Z,48.69
2022-11-16T12:46:30.659Z,48.68
2022-11-16T12:48:56.909Z,48.32
2022-11-16T12:51:26.384Z,48.65
2022-11-16T12:53:56.766Z,48.29
2022-11-16T12:56:25.863Z,48.63
2022-11-16T12:58:52.374Z,48.35
2022-11-16T13:01:18.716Z,48.76
2022-11-16T13:03:45.069Z,48.64
2022-11-16T13:06:11.355Z,48.81
2022-11-16T13:08:37.673Z,48.53
2022-11-16T13:11:06.785Z,48.88
2022-11-16T13:13:48.135Z,49.67
2022-11-16T13:16:18.110Z,49.59
2022-11-16T13:18:44.475Z,49.30
2022-11-16T13:21:11.648Z,49.40
2022-11-16T13:23:37.972Z,49.58
2022-11-16T13:26:05.383Z,49.46
2022-11-16T13:28:33.773Z,49.82
2022-11-16T13:31:00.363Z,49.72
2022-11-16T13:33:26.692Z,49.35
2022-11-16T13:35:53.010Z,49.79
2022-11-16T13:38:19.353Z,49.33
2022-11-16T13:40:45.702Z,49.67
2022-11-16T13:43:12.071Z,49.37
2022-11-16T13:45:38.430Z,49.10
2022-11-16T13:48:04.757Z,49.53
2022-11-16T13:50:37.070Z,49.19
2022-11-16T13:53:57.587Z,49.22
2022-11-16T13:55:50.314Z,49.52
2022-11-16T13:58:16.634Z,49.77
2022-11-16T14:00:43.004Z,49.63
2022-11-16T14:03:09.508Z,49.63
2022-11-16T14:05:35.811Z,49.28
2022-11-16T14:08:02.166Z,49.26
2022-11-16T14:10:28.466Z,49.37
2022-11-16T14:12:54.796Z,49.38
2022-11-16T14:15:21.124Z,49.39
2022-11-16T14:17:47.427Z,48.97
2022-11-16T14:20:17.095Z,48.65
2022-11-16T14:22:45.962Z,48.68
2022-11-16T14:25:12.383Z,48.74
2022-11-16T14:27:38.702Z,48.61
2022-11-16T14:30:05.041Z,48.44
2022-11-16T14:32:31.396Z,48.88
2022-11-16T14:34:57.716Z,49.22
2022-11-16T14:37:24.061Z,49.25
2022-11-16T14:39:50.383Z,49.93
2022-11-16T14:42:16.684Z,49.66
2022-11-16T14:44:42.981Z,49.24
2022-11-16T14:47:09.328Z,49.24
2022-11-16T14:49:35.654Z,48.49
2022-11-16T14:52:04.831Z,49.27
2022-11-16T14:54:33.931Z,49.23
2022-11-16T14:57:00.246Z,47.86
2022-11-16T14:59:26.553Z,47.11
2022-11-16T15:01:52.882Z,46.41
2022-11-16T15:04:21.999Z,45.65
2022-11-16T15:06:48.378Z,45.15
2022-11-16T15:09:14.882Z,45.03
2022-11-16T15:11:41.191Z,45.68
2022-11-16T15:14:07.559Z,45.69
2022-11-16T15:16:33.876Z,46.00
2022-11-16T15:19:00.206Z,46.77
2022-11-16T15:21:29.322Z,47.13
2022-11-16T15:24:23.382Z,47.49
2022-11-16T15:26:41.946Z,47.91
2022-11-16T15:29:08.275Z,48.23
2022-11-16T15:31:34.580Z,48.50
2022-11-16T15:34:00.893Z,48.98
2022-11-16T15:36:29.981Z,49.84
2022-11-16T15:38:56.296Z,50.10
2022-11-16T15:41:22.594Z,49.70
2022-11-16T15:44:11.903Z,49.46
2022-11-16T15:46:35.186Z,49.44
2022-11-16T15:49:01.497Z,49.40
2022-11-16T15:51:30.589Z,49.20
2022-11-16T15:53:56.910Z,49.21
2022-11-16T15:56:23.211Z,49.29
2022-11-16T15:58:49.515Z,49.34
2022-11-16T16:01:15.891Z,49.37
2022-11-16T16:03:42.246Z,49.22
2022-11-16T16:06:08.551Z,49.21
2022-11-16T16:08:34.875Z,49.41
2022-11-16T16:11:01.246Z,49.35
2022-11-16T16:13:30.365Z,49.23
2022-11-16T16:15:56.732Z,49.39
2022-11-16T16:18:23.079Z,49.65
2022-11-16T16:20:49.453Z,49.30
2022-11-16T16:23:15.827Z,49.79
2022-11-16T16:25:47.516Z,49.39
2022-11-16T16:28:16.553Z,49.64
2022-11-16T16:30:42.862Z,49.81
2022-11-16T16:33:10.067Z,49.58
2022-11-16T16:35:36.416Z,49.23
2022-11-16T16:38:02.764Z,49.62
2022-11-16T16:40:29.397Z,49.44
2022-11-16T16:42:56.017Z,49.65
2022-11-16T16:45:22.368Z,49.51
2022-11-16T16:47:48.722Z,49.64
2022-11-16T16:50:15.914Z,49.54
2022-11-16T16:52:42.485Z,48.17
2022-11-16T16:55:08.822Z,47.82
2022-11-16T16:57:35.175Z,47.73
2022-11-16T17:00:01.629Z,47.94
2022-11-16T17:02:28.000Z,48.22
2022-11-16T17:04:54.340Z,47.94
2022-11-16T17:07:20.725Z,48.22
2022-11-16T17:09:47.106Z,48.22
2022-11-16T17:12:13.455Z,48.60
2022-11-16T17:14:39.803Z,48.68
2022-11-16T17:17:06.338Z,49.00
2022-11-16T17:19:32.666Z,48.86
2022-11-16T17:21:59.001Z,49.01
2022-11-16T17:24:25.415Z,49.66
2022-11-16T17:26:51.760Z,49.29
2022-11-16T17:29:18.103Z,49.61
2022-11-16T17:31:44.456Z,49.65
2022-11-16T17:34:13.488Z,49.43
2022-11-16T17:36:40.755Z,49.57
2022-11-16T17:39:07.105Z,49.88
2022-11-16T17:41:33.737Z,49.84
2022-11-16T17:44:00.046Z,49.75
2022-11-16T17:46:26.386Z,49.81
2022-11-16T17:48:52.751Z,49.75
2022-11-16T17:51:19.068Z,49.65
2022-11-16T17:53:45.407Z,49.76
2022-11-16T17:56:12.646Z,49.98
2022-11-16T17:58:39.215Z,50.09
2022-11-16T18:01:05.591Z,50.29
2022-11-16T18:03:32.291Z,50.09
2022-11-16T18:05:58.776Z,50.07
2022-11-16T18:08:25.123Z,50.28
2022-11-16T18:10:51.625Z,49.99
2022-11-16T18:13:18.830Z,50.13
2022-11-16T18:15:45.161Z,50.15
2022-11-16T18:18:11.672Z,50.32
2022-11-16T18:20:38.021Z,50.09
2022-11-16T18:23:04.377Z,50.16
2022-11-16T18:25:30.738Z,50.41
2022-11-16T18:27:57.070Z,50.44
2022-11-16T18:30:23.475Z,50.35
2022-11-16T18:32:49.807Z,50.21
2022-11-16T18:35:16.286Z,50.58
2022-11-16T18:37:42.600Z,50.34
2022-11-16T18:40:08.951Z,50.58
2022-11-16T18:42:35.322Z,50.92
2022-11-16T18:45:01.704Z,50.39
2022-11-16T18:47:28.051Z,50.50
2022-11-16T18:49:54.480Z,50.17
2022-11-16T18:52:21.855Z,50.37
2022-11-16T18:54:48.190Z,50.74
2022-11-16T18:57:14.561Z,50.73
2022-11-16T18:59:41.415Z,50.55
2022-11-16T19:02:07.744Z,50.59
2022-11-16T19:04:34.122Z,50.61
2022-11-16T19:07:00.563Z,50.67
2022-11-16T19:09:26.958Z,50.82
2022-11-16T19:11:53.376Z,50.26
2022-11-16T19:14:20.571Z,50.55
2022-11-16T19:16:52.569Z,50.37
2022-11-16T19:19:22.105Z,50.29
2022-11-16T19:21:48.629Z,50.57
2022-11-16T19:24:15.871Z,50.45
2022-11-16T19:26:42.242Z,50.68
2022-11-16T19:29:08.649Z,50.42
2022-11-16T19:31:34.979Z,50.30
2022-11-16T19:34:01.330Z,50.41
2022-11-16T19:36:27.703Z,50.65
2022-11-16T19:38:54.035Z,50.35
2022-11-16T19:41:21.256Z,50.40
2022-11-16T19:43:47.600Z,50.25
2022-11-16T19:46:13.938Z,50.55
2022-11-16T19:48:40.309Z,50.58
2022-11-16T19:51:06.696Z,50.51
2022-11-16T19:53:33.443Z,50.31
2022-11-16T19:56:00.032Z,50.41
2022-11-16T19:58:26.370Z,50.13
2022-11-16T20:00:52.945Z,50.31
2022-11-16T20:03:20.168Z,50.38
2022-11-16T20:05:46.503Z,50.46
2022-11-16T20:08:12.863Z,50.51
2022-11-16T20:10:39.219Z,50.25
2022-11-16T20:13:05.574Z,50.41
2022-11-16T20:15:31.895Z,50.20
2022-11-16T20:17:58.240Z,50.55
2022-11-16T20:20:24.602Z,50.31
2022-11-16T20:22:50.980Z,50.33
2022-11-16T20:25:18.196Z,50.53
2022-11-16T20:27:44.539Z,50.23
2022-11-16T20:30:10.915Z,50.39
2022-11-16T20:32:37.319Z,47.11
2022-11-16T20:35:03.828Z,46.95
2022-11-16T20:37:31.144Z,45.72
2022-11-16T20:39:59.460Z,44.96
2022-11-16T20:42:29.470Z,44.25
2022-11-16T20:44:55.903Z,44.07
2022-11-16T20:47:24.222Z,44.61
2022-11-16T20:49:50.613Z,44.70
2022-11-16T20:52:20.112Z,46.53
2022-11-16T20:54:47.357Z,46.02
2022-11-16T20:57:13.706Z,46.00
2022-11-16T20:59:40.076Z,46.54
2022-11-16T21:02:06.421Z,46.41
2022-11-16T21:04:32.767Z,47.02
2022-11-16T21:06:59.155Z,47.70
2022-11-16T21:09:25.518Z,48.03
2022-11-16T21:11:51.865Z,47.99
2022-11-16T21:14:19.082Z,47.87
2022-11-16T21:16:46.412Z,48.66
2022-11-16T21:19:12.738Z,48.17
2022-11-16T21:21:39.236Z,48.49
2022-11-16T21:24:05.568Z,49.07
2022-11-16T21:26:31.917Z,49.61
2022-11-16T21:28:58.266Z,50.04
2022-11-16T21:31:24.605Z,49.84
2022-11-16T21:33:51.085Z,50.25
2022-11-16T21:36:18.285Z,50.44
2022-11-16T21:38:44.606Z,50.44
2022-11-16T21:41:10.922Z,50.10
2022-11-16T21:43:37.632Z,50.33
2022-11-16T21:46:04.097Z,50.48
2022-11-16T21:48:30.430Z,50.30
2022-11-16T21:50:56.817Z,50.55
2022-11-16T21:53:23.192Z,50.59
2022-11-16T21:55:52.358Z,50.69
2022-11-16T21:58:18.771Z,50.86
2022-11-16T22:00:45.115Z,50.86
2022-11-16T22:03:11.450Z,51.26
2022-11-16T22:05:37.795Z,50.47
2022-11-16T22:08:05.034Z,50.89
2022-11-16T22:10:32.316Z,50.78
2022-11-16T22:12:59.590Z,50.74
2022-11-16T22:15:26.941Z,50.40
2022-11-16T22:17:53.400Z,50.55
2022-11-16T22:20:19.837Z,50.96
2022-11-16T22:22:47.051Z,50.83
2022-11-16T22:25:13.597Z,51.18
2022-11-16T22:28:05.625Z,51.27
2022-11-16T22:30:26.570Z,51.02
2022-11-16T22:32:52.905Z,50.90
2022-11-16T22:35:19.382Z,51.29
2022-11-16T22:37:45.788Z,50.90
2022-11-16T22:40:17.472Z,50.94
2022-11-16T22:42:44.142Z,50.90
2022-11-16T22:45:10.501Z,50.99
2022-11-16T22:47:36.826Z,50.83
2022-11-16T22:50:03.174Z,50.85
2022-11-16T22:52:29.515Z,50.81
2022-11-16T22:54:55.864Z,51.16
2022-11-16T22:57:22.198Z,50.76
2022-11-16T22:59:48.537Z,50.94
2022-11-16T23:02:15.734Z,51.31
2022-11-16T23:04:42.087Z,51.39
2022-11-16T23:07:08.486Z,51.54
2022-11-16T23:09:34.838Z,51.36
2022-11-16T23:12:01.180Z,51.24
2022-11-16T23:14:27.546Z,51.56
2022-11-16T23:16:53.869Z,51.16
2022-11-16T23:19:20.221Z,51.16
2022-11-16T23:21:49.362Z,51.19
2022-11-16T23:24:15.705Z,51.05
2022-11-16T23:26:42.005Z,51.24
2022-11-16T23:29:08.316Z,51.17
2022-11-16T23:31:34.708Z,50.37
2022-11-16T23:34:01.019Z,51.35
2022-11-16T23:36:27.351Z,51.26
2022-11-16T23:38:53.657Z,51.07
2022-11-16T23:41:19.966Z,51.13
2022-11-16T23:43:46.351Z,51.04
2022-11-16T23:46:12.698Z,51.24
2022-11-16T23:48:39.009Z,51.47
2022-11-16T23:51:05.369Z,51.38
2022-11-16T23:53:31.749Z,51.43
2022-11-16T23:56:01.391Z,51.70
2022-11-16T23:58:31.707Z,51.69
